createdAt,value
2019-04-16T00:00:04.734Z,4.00
2019-04-16T00:01:04.859Z,4.00
2019-04-16T00:02:04.311Z,4.00
2019-04-16T00:03:09.934Z,4.00
2019-04-16T00:04:04.342Z,4.00
2019-04-16T00:05:04.447Z,3.90
2019-04-16T00:06:04.922Z,3.90
2019-04-16T00:07:04.242Z,3.90
2019-04-16T00:08:08.351Z,3.90
2019-04-16T00:09:05.193Z,3.80
2019-04-16T00:10:04.296Z,3.80
2019-04-16T00:11:04.790Z,3.80
2019-04-16T00:12:04.863Z,3.70
2019-04-16T00:13:05.106Z,3.70
2019-04-16T00:14:04.550Z,3.60
2019-04-16T00:15:04.772Z,3.60
2019-04-16T00:16:04.857Z,3.60
2019-04-16T00:17:05.029Z,3.50
2019-04-16T00:18:05.114Z,3.50
2019-04-16T00:19:06.003Z,3.50
2019-04-16T00:20:06.563Z,3.50
2019-04-16T00:21:06.387Z,3.40
2019-04-16T00:22:05.117Z,3.40
2019-04-16T00:23:05.251Z,3.40
2019-04-16T00:24:04.784Z,3.30
2019-04-16T00:25:04.717Z,3.30
2019-04-16T00:26:04.534Z,3.30
2019-04-16T00:27:04.445Z,3.30
2019-04-16T00:28:04.621Z,3.30
2019-04-16T00:29:04.854Z,3.20
2019-04-16T00:30:05.374Z,3.20
2019-04-16T00:31:05.436Z,3.20
2019-04-16T00:32:07.778Z,3.10
2019-04-16T00:33:07.478Z,3.10
2019-04-16T00:34:04.842Z,3.10
2019-04-16T00:35:05.245Z,3.10
2019-04-16T00:36:05.055Z,3.00
2019-04-16T00:37:04.291Z,3.00
2019-04-16T00:38:04.487Z,3.00
2019-04-16T00:39:04.643Z,3.00
2019-04-16T00:40:04.594Z,2.90
2019-04-16T00:41:05.079Z,2.90
2019-04-16T00:42:04.954Z,2.90
2019-04-16T00:43:05.126Z,2.90
2019-04-16T00:44:04.473Z,2.90
2019-04-16T00:45:04.523Z,2.90
2019-04-16T00:46:04.859Z,2.90
2019-04-16T00:47:04.527Z,2.90
2019-04-16T00:48:04.637Z,2.80
2019-04-16T00:49:04.668Z,2.80
2019-04-16T00:50:04.303Z,2.80
2019-04-16T00:51:05.013Z,2.80
2019-04-16T00:52:06.639Z,2.80
2019-04-16T00:53:07.567Z,2.80
2019-04-16T00:54:09.645Z,2.70
2019-04-16T00:55:04.754Z,2.70
2019-04-16T00:56:04.154Z,2.70
2019-04-16T00:57:04.600Z,2.60
2019-04-16T00:58:05.126Z,2.60
2019-04-16T00:59:04.839Z,2.60
2019-04-16T01:00:04.960Z,2.60
2019-04-16T01:01:05.132Z,2.50
2019-04-16T01:02:04.518Z,2.50
2019-04-16T01:03:04.298Z,2.50
2019-04-16T01:04:05.500Z,2.50
2019-04-16T01:05:04.813Z,2.50
2019-04-16T01:06:06.716Z,2.50
2019-04-16T01:07:04.800Z,2.40
2019-04-16T01:08:05.051Z,2.40
2019-04-16T01:09:04.440Z,2.40
2019-04-16T01:10:04.522Z,2.40
2019-04-16T01:11:05.218Z,2.40
2019-04-16T01:12:04.754Z,2.30
2019-04-16T01:13:04.871Z,2.30
2019-04-16T01:14:09.909Z,2.30
2019-04-16T01:15:04.365Z,2.30
2019-04-16T01:16:05.185Z,2.20
2019-04-16T01:17:05.236Z,2.20
2019-04-16T01:18:04.511Z,2.20
2019-04-16T01:19:04.333Z,2.20
2019-04-16T01:20:04.412Z,2.20
2019-04-16T01:21:04.829Z,2.20
2019-04-16T01:22:04.838Z,2.10
2019-04-16T01:23:04.612Z,2.10
2019-04-16T01:24:04.820Z,2.10
2019-04-16T01:25:04.334Z,2.10
2019-04-16T01:26:04.438Z,2.10
2019-04-16T01:27:04.791Z,2.10
2019-04-16T01:28:05.323Z,2.00
2019-04-16T01:29:04.799Z,2.00
2019-04-16T01:30:06.204Z,2.00
2019-04-16T01:31:06.877Z,1.90
2019-04-16T01:32:09.713Z,1.90
2019-04-16T01:33:04.324Z,1.90
2019-04-16T01:34:04.675Z,1.90
2019-04-16T01:35:04.235Z,1.80
2019-04-16T01:36:04.350Z,1.80
2019-04-16T01:37:04.665Z,1.80
2019-04-16T01:38:04.683Z,1.80
2019-04-16T01:39:15.516Z,1.80
2019-04-16T01:40:04.646Z,1.70
2019-04-16T01:41:05.214Z,1.70
2019-04-16T01:42:04.411Z,1.70
2019-04-16T01:43:04.836Z,1.70
2019-04-16T01:44:04.897Z,1.70
2019-04-16T01:45:04.971Z,1.70
2019-04-16T01:46:05.018Z,1.70
2019-04-16T01:47:05.283Z,1.70
2019-04-16T01:48:09.187Z,1.70
2019-04-16T01:49:05.591Z,1.70
2019-04-16T01:50:04.918Z,1.70
2019-04-16T01:51:04.815Z,1.70
2019-04-16T01:52:04.456Z,1.70
2019-04-16T01:53:04.160Z,1.60
2019-04-16T01:54:04.797Z,1.60
2019-04-16T01:55:05.126Z,1.60
2019-04-16T01:56:04.735Z,1.60
2019-04-16T01:57:05.186Z,1.60
2019-04-16T01:58:04.310Z,1.60
2019-04-16T01:59:05.937Z,1.60
2019-04-16T02:00:07.780Z,1.50
2019-04-16T02:01:05.173Z,1.50
2019-04-16T02:02:04.492Z,1.50
2019-04-16T02:03:05.000Z,1.50
2019-04-16T02:04:05.165Z,1.50
2019-04-16T02:05:04.765Z,1.50
2019-04-16T02:06:04.241Z,1.50
2019-04-16T02:07:04.855Z,1.50
2019-04-16T02:08:09.922Z,1.50
2019-04-16T02:09:04.307Z,1.50
2019-04-16T02:10:07.233Z,1.50
2019-04-16T02:11:07.211Z,1.50
2019-04-16T02:12:04.699Z,1.50
2019-04-16T02:13:04.353Z,1.40
2019-04-16T02:14:04.696Z,1.40
2019-04-16T02:15:04.853Z,1.40
2019-04-16T02:16:04.789Z,1.40
2019-04-16T02:17:04.849Z,1.40
2019-04-16T02:18:05.022Z,1.30
2019-04-16T02:19:04.681Z,1.30
2019-04-16T02:20:05.800Z,1.30
2019-04-16T02:21:09.481Z,1.30
2019-04-16T02:22:04.499Z,1.30
2019-04-16T02:23:04.580Z,1.30
2019-04-16T02:24:04.789Z,1.20
2019-04-16T02:25:05.178Z,1.20
2019-04-16T02:26:04.272Z,1.20
2019-04-16T02:27:04.313Z,1.20
2019-04-16T02:28:04.812Z,1.10
2019-04-16T02:29:04.785Z,1.10
2019-04-16T02:30:05.793Z,1.10
2019-04-16T02:31:09.167Z,1.10
2019-04-16T02:32:04.699Z,1.10
2019-04-16T02:33:04.940Z,1.10
2019-04-16T02:34:04.990Z,1.10
2019-04-16T02:35:04.582Z,1.10
2019-04-16T02:36:04.914Z,1.10
2019-04-16T02:37:05.014Z,1.10
2019-04-16T02:38:10.344Z,1.10
2019-04-16T02:39:05.163Z,1.10
2019-04-16T02:40:04.781Z,1.10
2019-04-16T02:41:04.523Z,1.10
2019-04-16T02:42:04.744Z,1.10
2019-04-16T02:43:09.682Z,1.10
2019-04-16T02:44:05.129Z,1.10
2019-04-16T02:45:04.217Z,1.10
2019-04-16T02:46:05.120Z,1.10
2019-04-16T02:47:07.185Z,1.00
2019-04-16T02:48:04.609Z,1.10
2019-04-16T02:49:04.778Z,1.00
2019-04-16T02:50:05.179Z,1.00
2019-04-16T02:51:06.868Z,1.00
2019-04-16T02:52:05.153Z,1.00
2019-04-16T02:53:05.170Z,1.00
2019-04-16T02:54:04.742Z,1.00
2019-04-16T02:55:08.931Z,1.00
2019-04-16T02:56:04.928Z,1.00
2019-04-16T02:57:04.568Z,1.00
2019-04-16T02:58:04.913Z,1.00
2019-04-16T02:59:09.120Z,1.00
2019-04-16T03:00:04.650Z,1.00
2019-04-16T03:01:04.843Z,1.00
2019-04-16T03:02:05.101Z,1.00
2019-04-16T03:03:10.086Z,1.00
2019-04-16T03:04:04.521Z,1.00
2019-04-16T03:05:05.091Z,1.00
2019-04-16T03:06:04.611Z,1.00
2019-04-16T03:07:05.023Z,1.00
2019-04-16T03:08:05.042Z,1.00
2019-04-16T03:09:05.336Z,1.00
2019-04-16T03:10:04.297Z,1.00
2019-04-16T03:11:04.347Z,1.00
2019-04-16T03:12:04.361Z,1.00
2019-04-16T03:13:04.539Z,1.00
2019-04-16T03:14:04.786Z,1.00
2019-04-16T03:15:05.052Z,1.00
2019-04-16T03:16:05.971Z,1.00
2019-04-16T03:17:06.758Z,1.00
2019-04-16T03:18:05.094Z,1.00
2019-04-16T03:19:04.535Z,1.00
2019-04-16T03:20:04.698Z,1.00
2019-04-16T03:21:04.209Z,0.90
2019-04-16T03:22:04.580Z,0.90
2019-04-16T03:23:05.726Z,0.90
2019-04-16T03:24:07.934Z,0.90
2019-04-16T03:25:04.225Z,0.90
2019-04-16T03:26:04.920Z,0.90
2019-04-16T03:27:05.487Z,0.90
2019-04-16T03:28:04.291Z,0.90
2019-04-16T03:29:04.350Z,0.90
2019-04-16T03:30:05.856Z,0.90
2019-04-16T03:31:08.617Z,0.90
2019-04-16T03:32:04.968Z,0.90
2019-04-16T03:33:09.457Z,0.90
2019-04-16T03:34:05.017Z,0.90
2019-04-16T03:35:05.011Z,0.90
2019-04-16T03:36:04.560Z,0.90
2019-04-16T03:37:04.990Z,0.90
2019-04-16T03:38:04.623Z,0.90
2019-04-16T03:39:05.171Z,0.90
2019-04-16T03:40:15.696Z,0.90
2019-04-16T03:41:05.067Z,0.90
2019-04-16T03:42:04.432Z,0.90
2019-04-16T03:43:09.740Z,0.90
2019-04-16T03:44:05.051Z,0.90
2019-04-16T03:45:07.775Z,0.80
2019-04-16T03:46:04.615Z,0.80
2019-04-16T03:47:04.528Z,0.80
2019-04-16T03:48:05.168Z,0.80
2019-04-16T03:49:04.756Z,0.80
2019-04-16T03:50:04.502Z,0.80
2019-04-16T03:51:04.893Z,0.70
2019-04-16T03:52:08.199Z,0.70
2019-04-16T03:53:04.639Z,0.70
2019-04-16T03:54:04.955Z,0.70
2019-04-16T03:55:04.649Z,0.70
2019-04-16T03:56:04.753Z,0.70
2019-04-16T03:57:04.861Z,0.70
2019-04-16T03:58:05.861Z,0.70
2019-04-16T03:59:10.451Z,0.70
2019-04-16T04:00:05.085Z,0.70
2019-04-16T04:01:05.067Z,0.70
2019-04-16T04:02:05.441Z,0.70
2019-04-16T04:03:05.119Z,0.60
2019-04-16T04:04:04.375Z,0.60
2019-04-16T04:05:06.633Z,0.60
2019-04-16T04:06:06.614Z,0.60
2019-04-16T04:07:04.678Z,0.60
2019-04-16T04:08:04.719Z,0.60
2019-04-16T04:09:04.657Z,0.60
2019-04-16T04:10:05.189Z,0.60
2019-04-16T04:11:08.831Z,0.60
2019-04-16T04:12:05.158Z,0.60
2019-04-16T04:13:05.136Z,0.60
2019-04-16T04:14:04.430Z,0.60
2019-04-16T04:15:04.733Z,0.60
2019-04-16T04:16:04.366Z,0.60
2019-04-16T04:17:06.537Z,0.60
2019-04-16T04:18:07.602Z,0.50
2019-04-16T04:19:04.983Z,0.50
2019-04-16T04:20:04.321Z,0.50
2019-04-16T04:21:04.656Z,0.50
2019-04-16T04:22:09.340Z,0.50
2019-04-16T04:23:04.867Z,0.50
2019-04-16T04:24:04.870Z,0.50
2019-04-16T04:25:05.679Z,0.50
2019-04-16T04:26:05.445Z,0.50
2019-04-16T04:27:04.908Z,0.50
2019-04-16T04:28:04.424Z,0.50
2019-04-16T04:29:06.117Z,0.50
2019-04-16T04:30:05.149Z,0.40
2019-04-16T04:31:04.736Z,0.40
2019-04-16T04:32:05.017Z,0.40
2019-04-16T04:33:07.720Z,0.40
2019-04-16T04:34:04.883Z,0.40
2019-04-16T04:35:04.965Z,0.40
2019-04-16T04:36:05.084Z,0.40
2019-04-16T04:37:05.018Z,0.40
2019-04-16T04:38:05.038Z,0.40
2019-04-16T04:39:08.927Z,0.40
2019-04-16T04:40:04.225Z,0.40
2019-04-16T04:41:04.675Z,0.40
2019-04-16T04:42:04.698Z,0.50
2019-04-16T04:43:04.322Z,0.50
2019-04-16T04:44:05.273Z,0.40
2019-04-16T04:45:08.312Z,0.50
2019-04-16T04:46:04.471Z,0.40
2019-04-16T04:47:04.719Z,0.40
2019-04-16T04:48:05.013Z,0.50
2019-04-16T04:49:04.776Z,0.50
2019-04-16T04:50:04.431Z,0.50
2019-04-16T04:51:07.933Z,0.50
2019-04-16T04:52:04.409Z,0.50
2019-04-16T04:53:04.637Z,0.50
2019-04-16T04:54:04.889Z,0.60
2019-04-16T04:55:05.155Z,0.60
2019-04-16T04:56:10.182Z,0.70
2019-04-16T04:57:04.647Z,0.80
2019-04-16T04:58:04.896Z,0.90
2019-04-16T04:59:05.288Z,1.00
2019-04-16T05:00:05.549Z,1.20
2019-04-16T05:01:04.829Z,1.30
2019-04-16T05:02:04.837Z,1.40
2019-04-16T05:03:04.729Z,1.60
2019-04-16T05:04:04.968Z,1.70
2019-04-16T05:05:05.201Z,1.90
2019-04-16T05:06:04.653Z,2.00
2019-04-16T05:07:05.005Z,2.10
2019-04-16T05:08:04.990Z,2.30
2019-04-16T05:09:04.371Z,2.40
2019-04-16T05:10:07.279Z,2.60
2019-04-16T05:11:04.909Z,2.70
2019-04-16T05:12:07.642Z,2.90
2019-04-16T05:13:04.974Z,3.00
2019-04-16T05:14:05.018Z,3.10
2019-04-16T05:15:04.310Z,3.20
2019-04-16T05:16:06.996Z,3.30
2019-04-16T05:17:06.399Z,3.40
2019-04-16T05:18:05.854Z,3.60
2019-04-16T05:19:04.800Z,3.70
2019-04-16T05:20:04.914Z,3.80
2019-04-16T05:21:05.068Z,4.00
2019-04-16T05:22:04.747Z,4.10
2019-04-16T05:23:05.209Z,4.20
2019-04-16T05:24:04.265Z,4.40
2019-04-16T05:25:04.511Z,4.50
2019-04-16T05:26:05.369Z,4.60
2019-04-16T05:27:05.396Z,4.80
2019-04-16T05:28:04.857Z,4.90
2019-04-16T05:29:04.930Z,5.00
2019-04-16T05:30:04.567Z,5.10
2019-04-16T05:31:04.253Z,5.30
2019-04-16T05:32:04.723Z,5.40
2019-04-16T05:33:05.484Z,5.50
2019-04-16T05:34:05.965Z,5.70
2019-04-16T05:35:08.915Z,5.80
2019-04-16T05:36:05.118Z,5.90
2019-04-16T05:37:04.668Z,6.00
2019-04-16T05:38:04.356Z,6.10
2019-04-16T05:39:04.667Z,6.30
2019-04-16T05:40:04.619Z,6.40
2019-04-16T05:41:12.882Z,6.50
2019-04-16T05:42:04.439Z,6.60
2019-04-16T05:43:10.276Z,6.70
2019-04-16T05:44:04.909Z,6.80
2019-04-16T05:45:05.443Z,6.90
2019-04-16T05:46:05.422Z,7.00
2019-04-16T05:47:05.184Z,7.10
2019-04-16T05:48:04.516Z,7.20
2019-04-16T05:49:04.593Z,7.30
2019-04-16T05:50:04.220Z,7.40
2019-04-16T05:51:04.946Z,7.50
2019-04-16T05:52:05.087Z,7.50
2019-04-16T05:53:05.344Z,7.60
2019-04-16T05:54:04.659Z,7.60
2019-04-16T05:55:04.916Z,7.70
2019-04-16T05:56:05.006Z,7.80
2019-04-16T05:57:04.542Z,7.80
2019-04-16T05:58:04.457Z,8.00
2019-04-16T05:59:04.682Z,8.00
2019-04-16T06:00:09.145Z,8.10
2019-04-16T06:01:05.083Z,8.20
2019-04-16T06:02:05.046Z,8.30
2019-04-16T06:03:04.565Z,8.40
2019-04-16T06:04:09.658Z,8.50
2019-04-16T06:05:04.517Z,8.50
2019-04-16T06:06:04.251Z,8.60
2019-04-16T06:07:07.520Z,8.70
2019-04-16T06:08:06.289Z,8.80
2019-04-16T06:09:04.464Z,8.80
2019-04-16T06:10:06.852Z,8.90
2019-04-16T06:11:04.745Z,9.00
2019-04-16T06:12:05.775Z,9.00
2019-04-16T06:13:05.163Z,9.10
2019-04-16T06:14:04.389Z,9.20
2019-04-16T06:15:04.561Z,9.20
2019-04-16T06:16:04.963Z,9.30
2019-04-16T06:17:04.760Z,9.30
2019-04-16T06:18:05.349Z,9.40
2019-04-16T06:19:04.808Z,9.40
2019-04-16T06:20:04.512Z,9.50
2019-04-16T06:21:04.668Z,9.60
2019-04-16T06:22:04.819Z,9.60
2019-04-16T06:23:05.111Z,9.70
2019-04-16T06:24:04.338Z,9.70
2019-04-16T06:25:09.149Z,9.80
2019-04-16T06:26:04.707Z,9.80
2019-04-16T06:27:05.288Z,9.90
2019-04-16T06:28:04.593Z,10.00
2019-04-16T06:29:05.003Z,10.00
2019-04-16T06:30:04.657Z,10.10
2019-04-16T06:31:08.450Z,10.10
2019-04-16T06:32:04.744Z,10.20
2019-04-16T06:33:04.429Z,10.20
2019-04-16T06:34:04.595Z,10.30
2019-04-16T06:35:04.789Z,10.30
2019-04-16T06:36:04.991Z,10.40
2019-04-16T06:37:05.156Z,10.50
2019-04-16T06:38:04.383Z,10.50
2019-04-16T06:39:05.124Z,10.50
2019-04-16T06:40:04.370Z,10.60
2019-04-16T06:41:04.344Z,10.60
2019-04-16T06:42:04.907Z,10.70
2019-04-16T06:43:09.977Z,10.70
2019-04-16T06:44:04.574Z,10.80
2019-04-16T06:45:05.687Z,10.80
2019-04-16T06:46:05.383Z,10.90
2019-04-16T06:47:04.496Z,10.90
2019-04-16T06:48:04.726Z,11.00
2019-04-16T06:49:04.890Z,11.00
2019-04-16T06:50:04.279Z,11.10
2019-04-16T06:51:04.372Z,11.10
2019-04-16T06:52:05.058Z,11.20
2019-04-16T06:53:04.219Z,11.20
2019-04-16T06:54:04.582Z,11.20
2019-04-16T06:55:04.927Z,11.30
2019-04-16T06:56:05.433Z,11.30
2019-04-16T06:57:05.050Z,11.30
2019-04-16T06:58:05.288Z,11.30
2019-04-16T06:59:04.658Z,11.40
2019-04-16T07:00:07.127Z,11.40
2019-04-16T07:01:06.687Z,11.50
2019-04-16T07:02:07.556Z,11.50
2019-04-16T07:03:04.571Z,11.60
2019-04-16T07:04:06.686Z,11.60
2019-04-16T07:05:04.670Z,11.70
2019-04-16T07:06:05.256Z,11.70
2019-04-16T07:07:07.720Z,11.80
2019-04-16T07:08:04.854Z,11.80
2019-04-16T07:09:04.565Z,11.80
2019-04-16T07:10:04.277Z,11.90
2019-04-16T07:11:04.573Z,11.90
2019-04-16T07:12:04.990Z,12.00
2019-04-16T07:13:09.895Z,12.00
2019-04-16T07:14:05.375Z,12.10
2019-04-16T07:15:05.132Z,12.10
2019-04-16T07:16:04.922Z,12.10
2019-04-16T07:17:04.411Z,12.20
2019-04-16T07:18:05.346Z,12.20
2019-04-16T07:19:10.102Z,12.20
2019-04-16T07:20:05.085Z,12.20
2019-04-16T07:21:05.055Z,12.30
2019-04-16T07:22:04.397Z,12.30
2019-04-16T07:23:04.736Z,12.30
2019-04-16T07:24:04.604Z,12.40
2019-04-16T07:25:05.601Z,12.40
2019-04-16T07:26:04.529Z,12.40
2019-04-16T07:27:04.833Z,12.40
2019-04-16T07:28:04.445Z,12.40
2019-04-16T07:29:04.212Z,12.40
2019-04-16T07:30:06.505Z,12.40
2019-04-16T07:31:04.737Z,12.40
2019-04-16T07:32:05.528Z,12.50
2019-04-16T07:33:04.741Z,12.50
2019-04-16T07:34:05.024Z,12.60
2019-04-16T07:35:04.261Z,12.60
2019-04-16T07:36:04.755Z,12.60
2019-04-16T07:37:05.130Z,12.70
2019-04-16T07:38:06.246Z,12.70
2019-04-16T07:39:05.903Z,12.80
2019-04-16T07:40:08.245Z,12.80
2019-04-16T07:41:04.745Z,12.90
2019-04-16T07:42:10.026Z,12.90
2019-04-16T07:43:09.596Z,13.00
2019-04-16T07:44:09.981Z,13.00
2019-04-16T07:45:04.908Z,13.10
2019-04-16T07:46:04.434Z,13.20
2019-04-16T07:47:05.121Z,13.20
2019-04-16T07:48:06.367Z,13.20
2019-04-16T07:49:04.754Z,13.30
2019-04-16T07:50:05.115Z,13.30
2019-04-16T07:51:04.794Z,13.40
2019-04-16T07:52:06.931Z,13.40
2019-04-16T07:53:04.767Z,13.40
2019-04-16T07:54:04.972Z,13.40
2019-04-16T07:55:04.695Z,13.40
2019-04-16T07:56:04.902Z,13.40
2019-04-16T07:57:04.904Z,13.40
2019-04-16T07:58:04.769Z,13.40
2019-04-16T07:59:04.300Z,13.50
2019-04-16T08:00:08.131Z,13.50
2019-04-16T08:01:05.174Z,13.50
2019-04-16T08:02:04.458Z,13.50
2019-04-16T08:03:05.144Z,13.50
2019-04-16T08:04:04.960Z,13.50
2019-04-16T08:05:07.835Z,13.50
2019-04-16T08:06:04.546Z,13.50
2019-04-16T08:07:04.345Z,13.50
2019-04-16T08:08:04.649Z,13.50
2019-04-16T08:09:04.715Z,13.50
2019-04-16T08:10:04.218Z,13.50
2019-04-16T08:11:04.636Z,13.50
2019-04-16T08:12:04.260Z,13.50
2019-04-16T08:13:05.131Z,13.50
2019-04-16T08:14:08.573Z,13.50
2019-04-16T08:15:13.211Z,13.50
2019-04-16T08:16:04.947Z,13.50
2019-04-16T08:17:05.096Z,13.50
2019-04-16T08:18:04.253Z,13.60
2019-04-16T08:19:04.531Z,13.60
2019-04-16T08:20:05.269Z,13.60
2019-04-16T08:21:12.182Z,13.70
2019-04-16T08:22:04.935Z,13.70
2019-04-16T08:23:04.644Z,13.80
2019-04-16T08:24:05.189Z,13.80
2019-04-16T08:25:04.460Z,13.80
2019-04-16T08:26:11.269Z,13.80
2019-04-16T08:27:05.313Z,13.90
2019-04-16T08:28:06.894Z,13.90
2019-04-16T08:29:04.540Z,14.00
2019-04-16T08:30:04.902Z,14.00
2019-04-16T08:31:04.256Z,14.00
2019-04-16T08:32:04.944Z,14.00
2019-04-16T08:33:04.595Z,14.00
2019-04-16T08:34:05.006Z,14.00
2019-04-16T08:35:05.132Z,14.00
2019-04-16T08:36:05.246Z,14.00
2019-04-16T08:37:08.025Z,14.00
2019-04-16T08:38:04.208Z,14.00
2019-04-16T08:39:06.440Z,14.00
2019-04-16T08:40:04.740Z,14.00
2019-04-16T08:41:04.555Z,14.00
2019-04-16T08:42:04.329Z,14.00
2019-04-16T08:43:04.540Z,14.10
2019-04-16T08:44:04.850Z,14.10
2019-04-16T08:45:08.392Z,14.10
2019-04-16T08:46:09.928Z,14.20
2019-04-16T08:47:05.191Z,14.20
2019-04-16T08:48:05.114Z,14.20
2019-04-16T08:49:05.183Z,14.30
2019-04-16T08:50:04.720Z,14.30
2019-04-16T08:51:05.345Z,14.30
2019-04-16T08:52:09.812Z,14.40
2019-04-16T08:53:04.689Z,14.40
2019-04-16T08:54:04.759Z,14.40
2019-04-16T08:55:09.934Z,14.40
2019-04-16T08:56:04.385Z,14.40
2019-04-16T08:57:04.777Z,14.40
2019-04-16T08:58:06.296Z,14.50
2019-04-16T08:59:09.422Z,14.50
2019-04-16T09:00:04.678Z,14.50
2019-04-16T09:01:04.285Z,14.60
2019-04-16T09:02:04.652Z,14.60
2019-04-16T09:03:04.775Z,14.60
2019-04-16T09:04:04.190Z,14.60
2019-04-16T09:05:06.210Z,14.60
2019-04-16T09:06:04.969Z,14.60
2019-04-16T09:07:11.882Z,14.70
2019-04-16T09:08:12.112Z,14.70
2019-04-16T09:09:12.201Z,14.70
2019-04-16T09:10:16.124Z,14.70
2019-04-16T09:11:04.898Z,14.70
2019-04-16T09:12:08.800Z,14.70
2019-04-16T09:13:05.083Z,14.70
2019-04-16T09:14:04.362Z,14.80
2019-04-16T09:15:04.673Z,14.70
2019-04-16T09:16:05.052Z,14.80
2019-04-16T09:17:04.585Z,14.70
2019-04-16T09:18:04.852Z,14.70
2019-04-16T09:19:05.106Z,14.70
2019-04-16T09:20:05.108Z,14.70
2019-04-16T09:21:06.808Z,14.70
2019-04-16T09:22:04.922Z,14.70
2019-04-16T09:23:04.613Z,14.70
2019-04-16T09:24:08.736Z,14.70
2019-04-16T09:25:04.497Z,14.70
2019-04-16T09:26:13.883Z,14.80
2019-04-16T09:27:04.951Z,14.80
2019-04-16T09:28:07.800Z,14.80
2019-04-16T09:29:09.236Z,14.90
2019-04-16T09:30:04.849Z,14.90
2019-04-16T09:31:05.306Z,14.90
2019-04-16T09:32:05.064Z,15.00
2019-04-16T09:33:05.055Z,15.00
2019-04-16T09:34:06.335Z,15.00
2019-04-16T09:35:09.468Z,15.10
2019-04-16T09:36:04.809Z,15.00
2019-04-16T09:37:05.174Z,15.10
2019-04-16T09:38:05.129Z,15.00
2019-04-16T09:39:04.534Z,15.10
2019-04-16T09:40:15.798Z,15.00
2019-04-16T09:41:04.915Z,15.10
2019-04-16T09:42:05.228Z,15.10
2019-04-16T09:43:15.966Z,15.10
2019-04-16T09:44:04.573Z,15.10
2019-04-16T09:45:04.947Z,15.10
2019-04-16T09:46:10.425Z,15.20
2019-04-16T09:47:05.285Z,15.20
2019-04-16T09:48:04.258Z,15.20
2019-04-16T09:49:05.124Z,15.30
2019-04-16T09:50:09.538Z,15.30
2019-04-16T09:51:05.036Z,15.30
2019-04-16T09:52:05.001Z,15.30
2019-04-16T09:53:04.708Z,15.40
2019-04-16T09:54:04.928Z,15.40
2019-04-16T09:55:04.297Z,15.40
2019-04-16T09:56:04.556Z,15.40
2019-04-16T09:57:04.751Z,15.40
2019-04-16T09:58:06.870Z,15.40
2019-04-16T09:59:04.713Z,15.40
2019-04-16T10:00:08.104Z,15.40
2019-04-16T10:01:05.105Z,15.40
2019-04-16T10:02:04.240Z,15.40
2019-04-16T10:03:09.469Z,15.30
2019-04-16T10:04:04.986Z,15.30
2019-04-16T10:05:04.582Z,15.30
2019-04-16T10:06:05.624Z,15.30
2019-04-16T10:07:04.802Z,15.40
2019-04-16T10:08:04.380Z,15.40
2019-04-16T10:09:04.509Z,15.40
2019-04-16T10:10:04.666Z,15.40
2019-04-16T10:11:06.150Z,15.40
2019-04-16T10:12:07.742Z,15.40
2019-04-16T10:13:05.172Z,15.40
2019-04-16T10:14:04.742Z,15.40
2019-04-16T10:15:04.909Z,15.40
2019-04-16T10:16:05.340Z,15.40
2019-04-16T10:17:04.404Z,15.40
2019-04-16T10:18:04.407Z,15.40
2019-04-16T10:19:07.593Z,15.50
2019-04-16T10:20:04.820Z,15.50
2019-04-16T10:21:04.446Z,15.50
2019-04-16T10:22:04.628Z,15.50
2019-04-16T10:23:05.108Z,15.60
2019-04-16T10:24:05.148Z,15.60
2019-04-16T10:25:05.048Z,15.50
2019-04-16T10:26:04.953Z,15.50
2019-04-16T10:27:04.874Z,15.50
2019-04-16T10:28:05.656Z,15.50
2019-04-16T10:29:06.038Z,15.60
2019-04-16T10:30:04.914Z,15.60
2019-04-16T10:31:04.548Z,15.60
2019-04-16T10:32:04.635Z,15.60
2019-04-16T10:33:05.116Z,15.60
2019-04-16T10:34:04.491Z,15.60
2019-04-16T10:35:04.813Z,15.70
2019-04-16T10:36:05.957Z,15.70
2019-04-16T10:37:05.003Z,15.70
2019-04-16T10:38:04.570Z,15.70
2019-04-16T10:39:04.286Z,15.70
2019-04-16T10:40:04.975Z,15.80
2019-04-16T10:41:04.973Z,15.80
2019-04-16T10:42:04.672Z,15.80
2019-04-16T10:43:09.268Z,15.80
2019-04-16T10:44:04.753Z,15.80
2019-04-16T10:45:04.990Z,15.80
2019-04-16T10:46:05.067Z,15.70
2019-04-16T10:47:04.554Z,15.70
2019-04-16T10:48:04.616Z,15.70
2019-04-16T10:49:04.845Z,15.70
2019-04-16T10:50:04.764Z,15.70
2019-04-16T10:51:04.904Z,15.70
2019-04-16T10:52:05.265Z,15.70
2019-04-16T10:53:04.853Z,15.70
2019-04-16T10:54:04.282Z,15.70
2019-04-16T10:55:05.037Z,15.70
2019-04-16T10:56:05.146Z,15.70
2019-04-16T10:57:04.871Z,15.80
2019-04-16T10:58:05.030Z,15.80
2019-04-16T10:59:04.777Z,15.90
2019-04-16T11:00:05.251Z,15.90
2019-04-16T11:01:05.414Z,15.90
2019-04-16T11:02:04.479Z,16.00
2019-04-16T11:03:04.435Z,16.00
2019-04-16T11:04:04.799Z,16.00
2019-04-16T11:05:04.258Z,16.10
2019-04-16T11:06:04.513Z,16.10
2019-04-16T11:07:04.984Z,16.10
2019-04-16T11:08:07.273Z,16.20
2019-04-16T11:09:04.801Z,16.20
2019-04-16T11:10:05.088Z,16.20
2019-04-16T11:11:04.968Z,16.20
2019-04-16T11:12:05.253Z,16.20
2019-04-16T11:13:04.788Z,16.30
2019-04-16T11:14:05.000Z,16.30
2019-04-16T11:15:05.159Z,16.30
2019-04-16T11:16:04.337Z,16.30
2019-04-16T11:17:04.814Z,16.30
2019-04-16T11:18:04.425Z,16.30
2019-04-16T11:19:05.018Z,16.30
2019-04-16T11:20:04.542Z,16.20
2019-04-16T11:21:04.917Z,16.20
2019-04-16T11:22:05.216Z,16.20
2019-04-16T11:23:07.005Z,16.20
2019-04-16T11:24:05.188Z,16.20
2019-04-16T11:25:05.085Z,16.20
2019-04-16T11:26:04.563Z,16.20
2019-04-16T11:27:04.790Z,16.20
2019-04-16T11:28:04.974Z,16.20
2019-04-16T11:29:05.112Z,16.30
2019-04-16T11:30:04.451Z,16.30
2019-04-16T11:31:04.891Z,16.30
2019-04-16T11:32:05.151Z,16.30
2019-04-16T11:33:05.060Z,16.30
2019-04-16T11:34:05.053Z,16.30
2019-04-16T11:35:04.839Z,16.30
2019-04-16T11:36:16.711Z,16.30
2019-04-16T11:37:08.036Z,16.30
2019-04-16T11:38:05.172Z,16.30
2019-04-16T11:39:04.706Z,16.40
2019-04-16T11:40:04.914Z,16.40
2019-04-16T11:41:04.490Z,16.40
2019-04-16T11:42:04.678Z,16.40
2019-04-16T11:43:10.055Z,16.40
2019-04-16T11:44:14.560Z,16.40
2019-04-16T11:45:04.757Z,16.40
2019-04-16T11:46:05.078Z,16.40
2019-04-16T11:47:04.583Z,16.40
2019-04-16T11:48:04.505Z,16.40
2019-04-16T11:49:04.705Z,16.40
2019-04-16T11:50:04.973Z,16.40
2019-04-16T11:51:05.207Z,16.30
2019-04-16T11:52:05.107Z,16.30
2019-04-16T11:53:04.563Z,16.30
2019-04-16T11:54:05.228Z,16.30
2019-04-16T11:55:05.254Z,16.30
2019-04-16T11:56:04.651Z,16.30
2019-04-16T11:57:04.837Z,16.30
2019-04-16T11:58:04.471Z,16.30
2019-04-16T11:59:04.991Z,16.30
2019-04-16T12:00:06.918Z,16.30
2019-04-16T12:01:05.142Z,16.30
2019-04-16T12:02:04.791Z,16.30
2019-04-16T12:03:05.217Z,16.30
2019-04-16T12:04:04.980Z,16.30
2019-04-16T12:05:05.686Z,16.40
2019-04-16T12:06:04.703Z,16.40
2019-04-16T12:07:05.774Z,16.40
2019-04-16T12:08:05.159Z,16.40
2019-04-16T12:09:04.432Z,16.40
2019-04-16T12:10:04.521Z,16.40
2019-04-16T12:11:04.787Z,16.40
2019-04-16T12:12:04.437Z,16.40
2019-04-16T12:13:04.717Z,16.40
2019-04-16T12:14:08.252Z,16.40
2019-04-16T12:15:05.422Z,16.40
2019-04-16T12:16:04.342Z,16.40
2019-04-16T12:17:04.754Z,16.40
2019-04-16T12:18:04.371Z,16.40
2019-04-16T12:19:04.758Z,16.40
2019-04-16T12:20:04.966Z,16.40
2019-04-16T12:21:04.458Z,16.40
2019-04-16T12:22:04.756Z,16.40
2019-04-16T12:23:05.435Z,16.40
2019-04-16T12:24:04.998Z,16.40
2019-04-16T12:25:04.679Z,16.40
2019-04-16T12:26:04.945Z,16.30
2019-04-16T12:27:05.049Z,16.40
2019-04-16T12:28:07.167Z,16.30
2019-04-16T12:29:05.015Z,16.30
2019-04-16T12:30:04.374Z,16.30
2019-04-16T12:31:05.939Z,16.30
2019-04-16T12:32:05.297Z,16.30
2019-04-16T12:33:07.406Z,16.30
2019-04-16T12:34:04.885Z,16.30
2019-04-16T12:35:04.954Z,16.30
2019-04-16T12:36:04.603Z,16.30
2019-04-16T12:37:04.569Z,16.30
2019-04-16T12:38:04.860Z,16.30
2019-04-16T12:39:04.349Z,16.30
2019-04-16T12:40:04.433Z,16.30
2019-04-16T12:41:05.178Z,16.30
2019-04-16T12:42:04.885Z,16.30
2019-04-16T12:43:14.641Z,16.40
2019-04-16T12:44:04.755Z,16.40
2019-04-16T12:45:08.487Z,16.40
2019-04-16T12:46:05.080Z,16.40
2019-04-16T12:47:05.180Z,16.50
2019-04-16T12:48:04.321Z,16.50
2019-04-16T12:49:04.898Z,16.50
2019-04-16T12:50:04.353Z,16.50
2019-04-16T12:51:04.399Z,16.50
2019-04-16T12:52:05.033Z,16.50
2019-04-16T12:53:04.839Z,16.50
2019-04-16T12:54:05.223Z,16.50
2019-04-16T12:55:04.343Z,16.50
2019-04-16T12:56:07.299Z,16.50
2019-04-16T12:57:04.545Z,16.50
2019-04-16T12:58:04.738Z,16.50
2019-04-16T12:59:04.484Z,16.50
2019-04-16T13:00:05.116Z,16.50
2019-04-16T13:01:05.222Z,16.40
2019-04-16T13:02:05.041Z,16.40
2019-04-16T13:03:10.152Z,16.40
2019-04-16T13:04:04.646Z,16.40
2019-04-16T13:05:04.516Z,16.40